createdAt,value
2022-11-07T00:00:10.015Z,8.90
2022-11-07T00:02:36.710Z,8.90
2022-11-07T00:05:03.862Z,10.10
2022-11-07T00:07:30.694Z,8.90
2022-11-07T00:09:57.398Z,9.30
2022-11-07T00:12:24.201Z,10.00
2022-11-07T00:14:50.928Z,9.00
2022-11-07T00:17:18.522Z,10.50
2022-11-07T00:19:45.267Z,10.30
2022-11-07T00:22:11.966Z,10.70
2022-11-07T00:24:38.720Z,9.00
2022-11-07T00:27:05.441Z,9.90
2022-11-07T00:29:32.154Z,9.00
2022-11-07T00:31:59.670Z,10.40
2022-11-07T00:34:26.273Z,10.40
2022-11-07T00:36:52.983Z,9.10
2022-11-07T00:39:19.710Z,9.10
2022-11-07T00:41:49.576Z,10.20
2022-11-07T00:44:16.504Z,9.10
2022-11-07T00:46:43.217Z,9.10
2022-11-07T00:49:10.981Z,9.00
2022-11-07T00:51:37.686Z,9.10
2022-11-07T00:54:04.764Z,9.10
2022-11-07T00:56:31.491Z,9.00
2022-11-07T00:58:58.824Z,9.80
2022-11-07T01:01:26.975Z,10.90
2022-11-07T01:04:12.480Z,9.90
2022-11-07T01:06:40.056Z,9.70
2022-11-07T01:09:07.669Z,9.10
2022-11-07T01:11:36.415Z,10.40
2022-11-07T01:14:03.798Z,9.10
2022-11-07T01:16:30.851Z,11.20
2022-11-07T01:18:57.560Z,9.60
2022-11-07T01:21:24.290Z,10.50
2022-11-07T01:23:50.931Z,9.20
2022-11-07T01:26:17.910Z,9.10
2022-11-07T01:28:44.600Z,11.00
2022-11-07T01:31:12.773Z,10.70
2022-11-07T01:33:39.448Z,11.10
2022-11-07T01:36:10.700Z,9.80
2022-11-07T01:38:41.940Z,9.00
2022-11-07T01:41:21.226Z,9.00
2022-11-07T01:43:57.117Z,9.60
2022-11-07T01:46:39.217Z,9.00
2022-11-07T01:49:18.221Z,9.00
2022-11-07T01:51:48.950Z,9.00
2022-11-07T01:54:17.328Z,9.00
2022-11-07T01:56:45.210Z,10.00
2022-11-07T01:59:17.534Z,10.30
2022-11-07T02:01:44.410Z,9.10
2022-11-07T02:04:12.079Z,10.50
2022-11-07T02:06:46.375Z,9.00
2022-11-07T02:09:13.323Z,9.00
2022-11-07T02:11:40.069Z,9.60
2022-11-07T02:14:06.858Z,10.00
2022-11-07T02:16:35.175Z,9.10
2022-11-07T02:19:02.852Z,9.10
2022-11-07T02:21:40.700Z,9.20
2022-11-07T02:24:07.351Z,9.10
2022-11-07T02:26:34.767Z,10.80
2022-11-07T02:29:03.216Z,8.50
2022-11-07T02:31:29.863Z,9.10
2022-11-07T02:33:56.526Z,9.10
2022-11-07T02:36:24.330Z,10.10
2022-11-07T02:38:57.439Z,9.20
2022-11-07T02:41:42.426Z,10.30
2022-11-07T02:44:10.873Z,9.20
2022-11-07T02:46:37.737Z,10.50
2022-11-07T02:49:04.549Z,9.20
2022-11-07T02:51:31.329Z,11.00
2022-11-07T02:53:58.101Z,10.00
2022-11-07T02:56:24.932Z,9.30
2022-11-07T02:58:52.803Z,9.30
2022-11-07T03:01:19.778Z,10.20
2022-11-07T03:03:48.068Z,10.80
2022-11-07T03:06:33.118Z,11.10
2022-11-07T03:08:59.837Z,9.20
2022-11-07T03:11:26.545Z,10.80
2022-11-07T03:13:55.047Z,9.70
2022-11-07T03:16:21.779Z,10.20
2022-11-07T03:18:48.458Z,9.10
2022-11-07T03:21:15.372Z,10.60
2022-11-07T03:23:42.024Z,9.10
2022-11-07T03:26:08.695Z,10.00
2022-11-07T03:28:35.321Z,10.60
2022-11-07T03:31:03.422Z,10.30
2022-11-07T03:33:30.838Z,10.40
2022-11-07T03:35:57.626Z,8.90
2022-11-07T03:38:24.301Z,10.60
2022-11-07T03:40:51.002Z,9.50
2022-11-07T03:43:17.935Z,9.00
2022-11-07T03:45:44.787Z,9.00
2022-11-07T03:48:11.448Z,10.80
2022-11-07T03:50:38.080Z,10.70
2022-11-07T03:53:04.831Z,9.00
2022-11-07T03:55:31.544Z,10.00
2022-11-07T03:57:58.718Z,8.90
2022-11-07T04:00:25.519Z,10.50
2022-11-07T04:02:52.231Z,10.70
2022-11-07T04:05:19.014Z,8.80
2022-11-07T04:07:45.700Z,8.80
2022-11-07T04:10:12.609Z,10.40
2022-11-07T04:12:58.172Z,8.70
2022-11-07T04:15:43.544Z,8.70
2022-11-07T04:18:10.202Z,9.50
2022-11-07T04:20:36.897Z,9.70
2022-11-07T04:23:03.594Z,8.70
2022-11-07T04:25:48.929Z,8.70
2022-11-07T04:28:18.013Z,8.70
2022-11-07T04:30:44.819Z,8.70
2022-11-07T04:33:11.643Z,8.70
2022-11-07T04:35:38.477Z,10.00
2022-11-07T04:38:05.195Z,8.60
2022-11-07T04:40:31.984Z,8.60
2022-11-07T04:42:58.743Z,8.50
2022-11-07T04:45:25.377Z,9.00
2022-11-07T04:47:52.337Z,9.40
2022-11-07T04:50:19.809Z,8.40
2022-11-07T04:52:46.979Z,8.40
2022-11-07T04:55:24.549Z,8.40
2022-11-07T04:57:52.309Z,8.40
2022-11-07T05:00:19.684Z,8.50
2022-11-07T05:02:47.101Z,8.40
2022-11-07T05:05:13.801Z,8.40
2022-11-07T05:07:40.652Z,8.40
2022-11-07T05:10:11.991Z,8.60
2022-11-07T05:12:39.090Z,8.20
2022-11-07T05:15:06.058Z,8.20
2022-11-07T05:17:32.680Z,8.10
2022-11-07T05:19:59.277Z,9.20
2022-11-07T05:22:44.823Z,8.20
2022-11-07T05:25:11.597Z,8.10
2022-11-07T05:27:38.324Z,8.00
2022-11-07T05:30:05.612Z,8.10
2022-11-07T05:32:34.066Z,8.00
2022-11-07T05:35:00.744Z,8.10
2022-11-07T05:37:27.399Z,9.20
2022-11-07T05:39:55.232Z,8.10
2022-11-07T05:42:21.951Z,10.10
2022-11-07T05:44:48.671Z,8.20
2022-11-07T05:47:15.379Z,9.10
2022-11-07T05:49:42.077Z,10.00
2022-11-07T05:52:08.707Z,8.60
2022-11-07T05:54:35.423Z,8.30
2022-11-07T05:57:02.167Z,8.30
2022-11-07T05:59:28.997Z,8.30
2022-11-07T06:01:55.806Z,8.30
2022-11-07T06:04:22.705Z,9.20
2022-11-07T06:06:49.295Z,8.30
2022-11-07T06:09:16.126Z,8.40
2022-11-07T06:11:42.836Z,8.40
2022-11-07T06:14:09.517Z,9.40
2022-11-07T06:16:36.187Z,10.20
2022-11-07T06:19:02.966Z,8.50
2022-11-07T06:21:29.821Z,8.60
2022-11-07T06:23:57.422Z,10.00
2022-11-07T06:26:24.065Z,8.70
2022-11-07T06:28:50.909Z,8.70
2022-11-07T06:31:17.594Z,9.70
2022-11-07T06:33:44.269Z,9.00
2022-11-07T06:36:11.784Z,9.80
2022-11-07T06:38:39.047Z,8.80
2022-11-07T06:41:09.760Z,8.80
2022-11-07T06:43:36.926Z,8.70
2022-11-07T06:46:11.453Z,10.30
2022-11-07T06:48:38.249Z,8.70
2022-11-07T06:51:05.867Z,10.40
2022-11-07T06:53:32.665Z,8.60
2022-11-07T06:55:59.922Z,9.40
2022-11-07T06:58:26.752Z,8.50
2022-11-07T07:00:53.545Z,9.60
2022-11-07T07:03:20.482Z,8.50
2022-11-07T07:05:47.223Z,9.00
2022-11-07T07:08:14.975Z,8.50
2022-11-07T07:10:43.191Z,8.50
2022-11-07T07:13:10.151Z,8.60
2022-11-07T07:15:49.790Z,8.50
2022-11-07T07:18:16.841Z,8.50
2022-11-07T07:20:43.501Z,8.50
2022-11-07T07:23:10.185Z,8.50
2022-11-07T07:25:36.852Z,9.40
2022-11-07T07:28:03.619Z,10.00
2022-11-07T07:30:30.425Z,8.50
2022-11-07T07:32:57.204Z,9.30
2022-11-07T07:35:23.859Z,8.60
2022-11-07T07:37:51.896Z,8.70
2022-11-07T07:40:19.254Z,8.70
2022-11-07T07:42:45.986Z,8.70
2022-11-07T07:45:13.487Z,8.70
2022-11-07T07:47:40.238Z,8.80
2022-11-07T07:50:08.221Z,10.70
2022-11-07T07:52:34.899Z,8.90
2022-11-07T07:55:01.534Z,10.20
2022-11-07T07:57:28.291Z,9.90
2022-11-07T07:59:54.938Z,10.30
2022-11-07T08:02:21.693Z,10.10
2022-11-07T08:04:48.450Z,10.30
2022-11-07T08:07:15.249Z,10.90
2022-11-07T08:09:41.987Z,9.60
2022-11-07T08:12:11.568Z,10.90
2022-11-07T08:14:38.159Z,9.70
2022-11-07T08:17:04.848Z,10.70
2022-11-07T08:19:31.645Z,9.80
2022-11-07T08:21:58.346Z,9.90
2022-11-07T08:24:24.949Z,9.90
2022-11-07T08:26:51.604Z,11.30
2022-11-07T08:29:18.254Z,10.40
2022-11-07T08:31:45.036Z,10.30
2022-11-07T08:34:11.763Z,10.10
2022-11-07T08:36:38.605Z,11.40
2022-11-07T08:39:05.262Z,10.20
2022-11-07T08:41:31.966Z,12.20
2022-11-07T08:43:58.625Z,10.20
2022-11-07T08:46:25.307Z,11.30
2022-11-07T08:48:51.968Z,11.70
2022-11-07T08:51:18.616Z,10.30
2022-11-07T08:53:45.245Z,11.20
2022-11-07T08:56:11.944Z,12.00
2022-11-07T08:58:38.586Z,10.50
2022-11-07T09:01:07.309Z,10.60
2022-11-07T09:03:48.603Z,10.70
2022-11-07T09:06:20.006Z,10.70
2022-11-07T09:08:46.912Z,11.00
2022-11-07T09:11:15.929Z,10.80
2022-11-07T09:13:42.926Z,10.90
2022-11-07T09:16:10.188Z,10.90
2022-11-07T09:18:36.927Z,11.50
2022-11-07T09:21:03.866Z,11.70
2022-11-07T09:23:31.022Z,11.10
2022-11-07T09:26:01.180Z,11.20
2022-11-07T09:28:28.203Z,11.20
2022-11-07T09:30:58.468Z,11.20
2022-11-07T09:33:25.413Z,11.30
2022-11-07T09:35:52.154Z,11.30
2022-11-07T09:38:19.297Z,11.20
2022-11-07T09:40:52.799Z,11.20
2022-11-07T09:43:32.559Z,11.20
2022-11-07T09:46:05.482Z,11.10
2022-11-07T09:48:37.112Z,11.20
2022-11-07T09:51:04.138Z,12.90
2022-11-07T09:53:36.883Z,12.20
2022-11-07T09:56:05.208Z,11.80
2022-11-07T09:58:34.721Z,11.20
2022-11-07T10:01:04.046Z,11.20
2022-11-07T10:03:31.878Z,12.40
2022-11-07T10:06:01.629Z,11.30
2022-11-07T10:08:33.098Z,11.40
2022-11-07T10:11:00.852Z,11.50
2022-11-07T10:13:37.434Z,11.60
2022-11-07T10:16:09.117Z,11.60
2022-11-07T10:18:43.120Z,12.60
2022-11-07T10:21:42.179Z,12.70
2022-11-07T10:24:24.248Z,11.80
2022-11-07T10:26:51.124Z,11.90
2022-11-07T10:29:19.006Z,12.80
2022-11-07T10:31:51.799Z,13.90
2022-11-07T10:34:23.703Z,12.30
2022-11-07T10:36:50.436Z,12.40
2022-11-07T10:39:18.454Z,12.70
2022-11-07T10:41:49.250Z,12.60
2022-11-07T10:44:23.838Z,12.50
2022-11-07T10:46:53.398Z,12.50
2022-11-07T10:49:24.508Z,12.60
2022-11-07T10:51:52.027Z,12.50
2022-11-07T10:54:22.099Z,12.50
2022-11-07T10:56:50.988Z,12.60
2022-11-07T10:59:28.080Z,12.50
2022-11-07T11:01:59.448Z,12.50
2022-11-07T11:04:27.832Z,13.70
2022-11-07T11:06:57.632Z,13.60
2022-11-07T11:09:28.179Z,12.60
2022-11-07T11:11:54.854Z,12.60
2022-11-07T11:14:21.630Z,12.60
2022-11-07T11:16:51.375Z,12.90
2022-11-07T11:19:23.195Z,12.70
2022-11-07T11:21:51.141Z,12.80
2022-11-07T11:24:23.931Z,12.90
2022-11-07T11:26:52.090Z,12.90
2022-11-07T11:29:48.180Z,14.40
2022-11-07T11:32:17.863Z,13.00
2022-11-07T11:34:51.066Z,14.00
2022-11-07T11:37:22.229Z,13.10
2022-11-07T11:39:58.051Z,13.20
2022-11-07T11:42:45.345Z,13.20
2022-11-07T11:45:15.279Z,13.20
2022-11-07T11:47:44.594Z,13.20
2022-11-07T11:50:15.755Z,13.20
2022-11-07T11:52:43.697Z,14.60
2022-11-07T11:55:17.973Z,13.20
2022-11-07T11:57:51.224Z,13.20
2022-11-07T12:00:18.997Z,13.20
2022-11-07T12:02:48.728Z,13.20
2022-11-07T12:05:27.950Z,13.10
2022-11-07T12:07:54.541Z,13.10
2022-11-07T12:10:27.046Z,13.20
2022-11-07T12:13:00.173Z,13.00
2022-11-07T12:15:35.377Z,13.10
2022-11-07T12:18:10.067Z,13.10
2022-11-07T12:20:36.659Z,13.30
2022-11-07T12:23:10.882Z,13.40
2022-11-07T12:25:44.003Z,13.60
2022-11-07T12:28:22.986Z,13.80
2022-11-07T12:30:54.951Z,13.90
2022-11-07T12:33:33.881Z,15.00
2022-11-07T12:36:06.797Z,14.10
2022-11-07T12:38:59.879Z,14.10
2022-11-07T12:41:33.068Z,14.10
2022-11-07T12:44:10.367Z,14.10
2022-11-07T12:46:56.394Z,14.10
2022-11-07T12:49:41.067Z,14.10
2022-11-07T12:52:23.374Z,14.20
2022-11-07T12:54:53.487Z,14.20
2022-11-07T12:57:25.506Z,14.20
2022-11-07T13:00:12.346Z,14.20
2022-11-07T13:02:39.037Z,13.30
2022-11-07T13:05:14.973Z,14.20
2022-11-07T13:07:54.145Z,14.20
2022-11-07T13:10:26.896Z,14.30
2022-11-07T13:12:53.549Z,14.40
2022-11-07T13:15:20.255Z,14.50
2022-11-07T13:17:47.290Z,15.50
2022-11-07T13:20:23.170Z,14.50
2022-11-07T13:22:51.061Z,14.50
2022-11-07T13:25:17.829Z,14.50
2022-11-07T13:27:45.885Z,14.50
2022-11-07T13:30:15.256Z,14.50
2022-11-07T13:32:42.690Z,14.50
2022-11-07T13:35:10.711Z,14.40
2022-11-07T13:37:40.264Z,14.40
2022-11-07T13:40:26.842Z,14.30
2022-11-07T13:42:55.546Z,14.20
2022-11-07T13:45:32.274Z,14.10
2022-11-07T13:48:05.382Z,14.10
2022-11-07T13:50:43.735Z,14.00
2022-11-07T13:53:21.992Z,13.90
2022-11-07T13:55:57.295Z,13.90
2022-11-07T13:58:26.298Z,13.90
2022-11-07T14:00:53.002Z,14.90
2022-11-07T14:03:27.139Z,13.70
2022-11-07T14:05:55.084Z,13.70
2022-11-07T14:08:24.410Z,13.70
2022-11-07T14:10:51.849Z,13.50
2022-11-07T14:13:23.385Z,13.40
2022-11-07T14:15:53.503Z,13.30
2022-11-07T14:18:25.477Z,13.70
2022-11-07T14:20:53.645Z,13.20
2022-11-07T14:23:21.572Z,14.00
2022-11-07T14:25:59.468Z,13.30
2022-11-07T14:28:29.823Z,13.00
2022-11-07T14:30:56.414Z,12.90
2022-11-07T14:33:23.072Z,12.90
2022-11-07T14:35:51.329Z,12.90
2022-11-07T14:38:25.150Z,12.80
2022-11-07T14:40:55.590Z,13.60
2022-11-07T14:43:24.065Z,12.70
2022-11-07T14:48:42.068Z,12.60
2022-11-07T14:51:12.776Z,13.90
2022-11-07T14:53:45.408Z,12.60
2022-11-07T14:56:13.166Z,12.50
2022-11-07T14:58:39.931Z,13.40
2022-11-07T15:01:06.710Z,12.50
2022-11-07T15:03:34.946Z,12.80
2022-11-07T15:06:02.189Z,13.60
2022-11-07T15:08:30.259Z,13.70
2022-11-07T15:11:15.367Z,13.00
2022-11-07T15:13:42.252Z,12.70
2022-11-07T15:16:16.506Z,12.70
2022-11-07T15:18:44.523Z,12.10
2022-11-07T15:21:28.783Z,12.10
2022-11-07T15:23:55.815Z,12.00
2022-11-07T15:26:23.757Z,12.00
2022-11-07T15:28:51.507Z,11.90
2022-11-07T15:31:20.338Z,11.90
2022-11-07T15:33:47.320Z,11.80
2022-11-07T15:36:14.655Z,11.70
2022-11-07T15:38:41.491Z,11.70
2022-11-07T15:41:08.185Z,11.70
2022-11-07T15:43:34.812Z,13.00
2022-11-07T15:46:01.941Z,11.60
2022-11-07T15:48:32.973Z,12.30
2022-11-07T15:51:02.384Z,12.40
2022-11-07T15:53:29.424Z,12.50
2022-11-07T15:55:57.773Z,12.80
2022-11-07T15:58:25.526Z,11.50
2022-11-07T16:00:52.757Z,11.50
2022-11-07T16:03:20.848Z,11.40
2022-11-07T16:05:48.529Z,11.40
2022-11-07T16:08:16.985Z,11.40
2022-11-07T16:10:45.624Z,11.30
2022-11-07T16:13:12.539Z,12.60
2022-11-07T16:15:40.333Z,11.20
2022-11-07T16:18:12.858Z,11.10
2022-11-07T16:20:39.599Z,11.10
2022-11-07T16:23:06.246Z,11.00
2022-11-07T16:25:32.883Z,11.80
2022-11-07T16:28:00.324Z,12.20
2022-11-07T16:30:27.829Z,11.50
2022-11-07T16:32:54.618Z,12.50
2022-11-07T16:35:21.446Z,12.40
2022-11-07T16:37:48.242Z,10.90
2022-11-07T16:40:16.367Z,11.50
2022-11-07T16:42:42.990Z,12.10
2022-11-07T16:45:12.067Z,11.00
2022-11-07T16:47:39.550Z,10.50
2022-11-07T16:50:06.493Z,10.50
2022-11-07T16:52:33.416Z,10.40
2022-11-07T16:55:00.028Z,10.50
2022-11-07T16:57:26.629Z,11.20
2022-11-07T16:59:53.241Z,11.10
2022-11-07T17:02:22.035Z,11.50
2022-11-07T17:04:49.690Z,12.60
2022-11-07T17:07:17.352Z,10.20
2022-11-07T17:09:44.122Z,10.90
2022-11-07T17:12:13.136Z,10.90
2022-11-07T17:14:40.033Z,10.10
2022-11-07T17:17:07.010Z,10.10
2022-11-07T17:19:34.206Z,11.30
2022-11-07T17:22:03.103Z,10.00
2022-11-07T17:24:30.709Z,9.90
2022-11-07T17:26:57.980Z,12.00
2022-11-07T17:29:25.165Z,10.60
2022-11-07T17:31:51.813Z,10.80
2022-11-07T17:34:18.429Z,10.70
2022-11-07T17:36:47.211Z,8.60
2022-11-07T17:39:16.158Z,10.70
2022-11-07T17:41:44.440Z,11.60
2022-11-07T17:44:11.614Z,9.60
2022-11-07T17:46:45.255Z,10.60
2022-11-07T17:49:17.063Z,9.40
2022-11-07T17:51:43.875Z,9.40
2022-11-07T17:54:11.960Z,11.30
2022-11-07T17:56:38.682Z,10.80
2022-11-07T17:59:06.626Z,9.30
2022-11-07T18:01:34.686Z,10.00
2022-11-07T18:04:01.861Z,10.10
2022-11-07T18:06:28.796Z,11.20
2022-11-07T18:08:57.129Z,10.80
2022-11-07T18:11:24.997Z,10.30
2022-11-07T18:13:52.480Z,9.70
2022-11-07T18:16:20.319Z,10.60
2022-11-07T18:18:47.014Z,9.50
2022-11-07T18:21:13.802Z,11.20
2022-11-07T18:23:41.202Z,11.00
2022-11-07T18:26:09.253Z,11.30
2022-11-07T18:28:36.785Z,9.60
2022-11-07T18:31:04.716Z,11.10
2022-11-07T18:33:31.688Z,10.10
2022-11-07T18:35:59.499Z,11.60
2022-11-07T18:38:26.535Z,9.70
2022-11-07T18:41:00.363Z,10.20
2022-11-07T18:43:26.967Z,9.00
2022-11-07T18:45:53.913Z,9.00
2022-11-07T18:48:21.064Z,11.40
2022-11-07T18:50:48.077Z,8.80
2022-11-07T18:53:14.760Z,10.00
2022-11-07T18:55:41.662Z,10.60
2022-11-07T18:58:08.410Z,10.80
2022-11-07T19:00:35.092Z,9.70
2022-11-07T19:03:02.176Z,10.30
2022-11-07T19:05:29.176Z,9.80
2022-11-07T19:07:55.808Z,9.50
2022-11-07T19:10:22.561Z,10.90
2022-11-07T19:12:49.180Z,10.00
2022-11-07T19:15:15.911Z,9.90
2022-11-07T19:17:42.641Z,10.20
2022-11-07T19:20:09.669Z,8.30
2022-11-07T19:22:36.321Z,8.30
2022-11-07T19:25:02.926Z,9.40
2022-11-07T19:27:29.727Z,8.30
2022-11-07T19:29:56.604Z,8.20
2022-11-07T19:32:23.245Z,10.00
2022-11-07T19:34:49.888Z,8.80
2022-11-07T19:37:16.752Z,9.30
2022-11-07T19:39:43.403Z,8.70
2022-11-07T19:42:10.016Z,7.60
2022-11-07T19:44:36.680Z,9.10
2022-11-07T19:47:03.314Z,9.00
2022-11-07T19:49:29.928Z,7.50
2022-11-07T19:51:56.677Z,8.50
2022-11-07T19:54:23.314Z,7.70
2022-11-07T19:56:56.207Z,8.00
2022-11-07T19:59:23.954Z,8.50
2022-11-07T20:02:04.431Z,9.20
2022-11-07T20:04:37.504Z,9.00
2022-11-07T20:07:04.197Z,7.80
2022-11-07T20:09:30.816Z,7.70
2022-11-07T20:11:57.461Z,8.70
2022-11-07T20:14:24.033Z,8.70
2022-11-07T20:16:50.645Z,9.40
2022-11-07T20:19:17.307Z,7.40
2022-11-07T20:21:43.929Z,8.50
2022-11-07T20:24:10.659Z,10.00
2022-11-07T20:26:38.491Z,8.60
2022-11-07T20:29:05.547Z,8.50
2022-11-07T20:31:33.786Z,8.50
2022-11-07T20:34:02.094Z,9.10
2022-11-07T20:36:31.091Z,7.50
2022-11-07T20:38:58.401Z,9.00
2022-11-07T20:41:25.383Z,8.90
2022-11-07T20:43:55.007Z,9.40
2022-11-07T20:46:21.625Z,7.60
2022-11-07T20:48:48.341Z,9.70
2022-11-07T20:51:16.498Z,9.50
2022-11-07T20:53:49.496Z,9.80
2022-11-07T20:56:18.025Z,9.80
2022-11-07T20:58:45.129Z,7.80
2022-11-07T21:01:13.673Z,9.20
2022-11-07T21:03:40.408Z,7.10
2022-11-07T21:06:11.474Z,8.20
2022-11-07T21:08:38.977Z,8.40
2022-11-07T21:11:06.136Z,8.50
2022-11-07T21:13:33.076Z,6.70
2022-11-07T21:15:59.945Z,8.40
2022-11-07T21:18:26.784Z,8.20
2022-11-07T21:20:53.478Z,8.90
2022-11-07T21:23:20.245Z,8.40
2022-11-07T21:25:48.568Z,8.30
2022-11-07T21:28:19.797Z,7.00
2022-11-07T21:30:59.897Z,8.20
2022-11-07T21:33:26.493Z,7.00
2022-11-07T21:35:53.155Z,8.60
2022-11-07T21:38:19.830Z,6.90
2022-11-07T21:40:46.439Z,6.90
2022-11-07T21:43:13.198Z,8.10
2022-11-07T21:45:39.893Z,8.80
2022-11-07T21:48:06.991Z,6.60
2022-11-07T21:50:49.090Z,7.90
2022-11-07T21:53:16.174Z,7.20
2022-11-07T21:55:43.075Z,7.90
2022-11-07T21:58:09.670Z,7.20
2022-11-07T22:00:37.156Z,8.00
2022-11-07T22:03:04.418Z,8.40
2022-11-07T22:05:31.029Z,6.10
2022-11-07T22:07:58.041Z,8.10
2022-11-07T22:10:24.697Z,6.20
2022-11-07T22:12:52.385Z,6.20
2022-11-07T22:15:19.025Z,7.90
2022-11-07T22:17:45.772Z,7.20
2022-11-07T22:20:12.462Z,7.10
2022-11-07T22:22:39.049Z,6.00
2022-11-07T22:25:06.569Z,6.20
2022-11-07T22:27:33.198Z,6.20
2022-11-07T22:29:59.807Z,8.40
2022-11-07T22:32:26.417Z,8.70
2022-11-07T22:34:53.128Z,7.60
2022-11-07T22:37:19.755Z,8.00
2022-11-07T22:39:46.495Z,7.20
2022-11-07T22:42:13.122Z,6.10
2022-11-07T22:44:39.728Z,7.40
2022-11-07T22:47:06.371Z,7.30
2022-11-07T22:49:33.110Z,7.50
2022-11-07T22:51:59.891Z,5.90
2022-11-07T22:54:26.617Z,7.20
2022-11-07T22:56:53.253Z,5.90
2022-11-07T22:59:19.876Z,8.00
2022-11-07T23:01:46.617Z,7.90
2022-11-07T23:04:14.634Z,7.60
2022-11-07T23:06:41.666Z,7.90
2022-11-07T23:09:08.377Z,5.80
2022-11-07T23:11:51.644Z,5.80
2022-11-07T23:14:19.706Z,7.90
2022-11-07T23:16:48.247Z,5.70
2022-11-07T23:19:16.010Z,7.60
2022-11-07T23:21:42.936Z,5.80
2022-11-07T23:24:09.945Z,8.00
2022-11-07T23:26:36.572Z,6.80
2022-11-07T23:29:11.263Z,6.00
2022-11-07T23:31:39.176Z,5.80
2022-11-07T23:34:06.405Z,7.20
2022-11-07T23:36:33.031Z,7.50
2022-11-07T23:39:06.505Z,5.60
2022-11-07T23:41:33.504Z,5.70
2022-11-07T23:44:00.138Z,7.80
2022-11-07T23:46:45.455Z,7.60
2022-11-07T23:49:30.557Z,6.20
2022-11-07T23:51:57.249Z,5.50
2022-11-07T23:54:42.668Z,5.50
2022-11-07T23:57:09.295Z,5.50
2022-11-07T23:59:54.968Z,5.70
